Athens, TN

6:23 AM EST on February 09, 2016 (GMT -0500)
City Park, Athens, TN | | Change Station
CLOSE
Current Station
Personal Weather Station
Location: Athens, TN
Elevation: 906 ft
Nearby Weather Stations
Active Advisory: Winter Weather Advisory

Elev 906 ft 35.44 °N, 84.60 °W | Updated 7 minutes ago

Overcast
Overcast
26.6 °F
Feels Like 21 °F
N
4.5
Wind Variable Wind from NW
Gusts 9.2 mph

Today
High -- | Low -- °F
--% Chance of Precip.
Yesterday
High -- | Low -- °F
Precip. -- in
Pressure 29.85 in
Visibility 10.0 miles
Clouds Few 4000 ft
Mostly Cloudy 4800 ft
Overcast 6500 ft
Windchill 21 °F
Dew Point 20 °F
Humidity 77%
Rainfall 0.00 in
Snow Depth Not available.
7:31 AM 6:14 PM
New Moon, 1% visible
METAR KMMI 091115Z AUTO 28006KT 10SM FEW040 BKN048 OVC065 M04/M09 A2985 RMK
Pressure 29.85 in
Visibility 10.0 miles
Clouds Few 4000 ft
Mostly Cloudy 4800 ft
Overcast 6500 ft
Windchill 21 °F
Dew Point 20 °F
Humidity 77%
Rainfall 0.00 in
Snow Depth Not available.
7:31 AM 6:14 PM
New Moon, 1% visible
METAR KMMI 091115Z AUTO 28006KT 10SM FEW040 BKN048 OVC065 M04/M09 A2985 RMK

10-Day Weather Forecast

Almanac

Astronomy

Feb. 09, 2016 Rise Set
Actual Time
Civil Twilight
Nautical Twilight
Astronomical Twilight
Moon
Length of Visible Light
Length of Day
Tomorrow will be .
, % of the Moon is Illuminated

Today's Extremes

State Highs State Lows

Community

WunderPhotos

Upload Photos

1,891,565 photos uploaded!

WunderBlog® & News

Nearby

Air Quality

  Air Quality AQ Index Pollutant
Not available.

Snow Depth

Station Depth Elevation

Earthquake Activity

City Distance Mag. Time & Date
Minimum magnitude displayed is 2.5.

Coastal Water Temperatures

Place Temperature

Stations

Nearby Weather Stations

Station Location Temp. Windchill Dew Point Humidity Wind Precip. Elev Updated Type
                   

Watches & Warnings

Winter Weather Advisory
Issued: 3:32 AM EST Feb. 9, 2016 – National Weather Service

... Winter Weather Advisory remains in effect until 7 PM EST this
evening...

* event... a series of upper-level disturbances will sweep across
the area today... bringing a few periods of snow showers to the
southern valley. During the event snow totals will be mainly
around 1 inch in the valley... but a few locally higher amounts
expected along the higher terrain.

* Timing... today through early this evening.

* Impacts... the snow could cause hazardous driving conditions...
especially on secondary roads.

Precautionary/preparedness actions...

A Winter Weather Advisory for snow means that periods of snow are
expected or occurring... but accumulations are expected to be
light. Driving and walking may be difficult on untreated
roadways and sidewalks. Be prepared for snow covered roads and
limited visibilities. If you must travel... slow down and allow
extra time to reach your destination.